Gainesville, FL

5:50 AM EDT on April 27, 2015 (GMT -0400)
Haile Plantation | | Change Station
CLOSE
Current Station
Personal Weather Station
Location: Gainesville, FL
Elevation: 84 ft
Nearby Weather Stations

Elev 84 ft 29.61 °N, 82.45 °W | Updated 5 minutes ago

Overcast
Overcast
74.3 °F
Feels Like 70 °F
N
0.0
Wind Variable Wind from North
Gusts 2.2 mph

Today
High -- | Low -- °F
--% Chance of Precip.
Yesterday
High -- | Low -- °F
Precip. -- in
6:50 AM 8:03 PM
Waxing Gibbous, 63% visible
Pressure 29.74 in
Visibility 7.0 miles
Clouds Scattered Clouds 800 ft
Scattered Clouds 11000 ft
Heat Index 70 °F
Dew Point 74 °F
Humidity 100%
Rainfall 0.00 in
Snow Depth Not available.
UV 0 out of 12
Pollen 6.00 out of 12
Air Quality Not available.
Flu Activity Local Activity
SPECI KGNV 270934Z AUTO 25009KT 7SM SCT008 SCT110 23/22 A2974 RMK AO2 T02280222 $

More Conditions Fewer Conditions

Pressure 29.74 in
Visibility 7.0 miles
Clouds Scattered Clouds 800 ft
Scattered Clouds 11000 ft
Heat Index 70 °F
Dew Point 74 °F
Humidity 100%
Rainfall 0.00 in
Snow Depth Not available.
UV 0 out of 12
Pollen 6.00 out of 12
Air Quality Not available.
Flu Activity Local Activity
SPECI KGNV 270934Z AUTO 25009KT 7SM SCT008 SCT110 23/22 A2974 RMK AO2 T02280222 $

More Conditions Fewer Conditions

10-Day Weather Forecast

Almanac

Astronomy

Apr. 27, 2015 Rise Set
Actual Time
Civil Twilight
Nautical Twilight
Astronomical Twilight
Moon
Length of Visible Light
Length of Day
Tomorrow will be .
, % of the Moon is Illuminated

Today's Extremes

State Highs State Lows

Community

WunderPhotos

Upload Photos

1,817,278 photos uploaded!

WunderBlogs® & News

Nearby

Air Quality

  Air Quality AQ Index Pollutant
Not available.

Snow Depth

Station Depth Elevation

Earthquake Activity

City Distance Mag. Time & Date
Minimum magnitude displayed is 2.5.

Coastal Water Temperatures

Place Temperature

Stations

Nearby Weather Stations

Station Location Temp. Windchill Dew Point Humidity Wind Precip. Elev Updated Type